Time;durP1;ratioP1;P1;durP2;ratioP2;P2;SDS_P1;SDS_P2;PMS_P1;PMS_P2;Temp;Humidity;BMP_temperature;BMP_pressure;BME280_temperature;BME280_humidity;BME280_pressure;Samples;Min_cycle;Max_cycle;Signal;HPM_P1;HPM_P2
2024/03/10 00:00:14;;;;;;;41.80;22.77;;;;;;;3.58;100.00;100017.00;5022117;28;20200;-71
2024/03/10 00:02:43;;;;;;;47.77;23.27;;;;;;;3.55;100.00;100020.16;5021701;28;20234;-72
2024/03/10 00:05:10;;;;;;;42.70;22.73;;;;;;;3.54;100.00;100016.03;5018666;28;20745;-72
2024/03/10 00:07:37;;;;;;;41.50;21.83;;;;;;;3.53;100.00;100025.69;5020616;28;20278;-71
2024/03/10 00:10:04;;;;;;;45.10;23.00;;;;;;;3.50;100.00;100020.28;5020261;28;21675;-72
2024/03/10 00:12:30;;;;;;;42.17;22.07;;;;;;;3.48;100.00;100020.56;5020260;28;20674;-72
2024/03/10 00:14:57;;;;;;;43.90;23.33;;;;;;;3.45;100.00;100015.16;5021970;28;20220;-71
2024/03/10 00:17:24;;;;;;;45.97;23.53;;;;;;;3.43;100.00;100019.91;5019131;28;20236;-71
2024/03/10 00:19:52;;;;;;;43.43;23.37;;;;;;;3.41;100.00;100028.03;5021322;28;20196;-72
2024/03/10 00:22:18;;;;;;;43.53;22.80;;;;;;;3.38;100.00;100020.75;5020058;28;20204;-71
2024/03/10 00:24:45;;;;;;;38.10;20.93;;;;;;;3.35;100.00;100023.97;5019543;28;20231;-71
2024/03/10 00:27:12;;;;;;;44.10;22.97;;;;;;;3.34;100.00;100019.03;5019488;28;20207;-71
2024/03/10 00:29:38;;;;;;;43.23;23.03;;;;;;;3.32;100.00;100023.78;5019913;28;20232;-71
2024/03/10 00:32:06;;;;;;;44.07;22.90;;;;;;;3.32;100.00;100019.31;5020215;28;20717;-71
2024/03/10 00:34:34;;;;;;;42.80;22.70;;;;;;;3.33;100.00;100014.88;5021286;28;20681;-71
2024/03/10 00:37:02;;;;;;;42.00;23.23;;;;;;;3.32;100.00;100016.72;5021215;28;20234;-71
2024/03/10 00:39:29;;;;;;;45.57;22.20;;;;;;;3.33;100.00;100010.41;5022081;28;20203;-71
2024/03/10 00:41:55;;;;;;;45.73;23.33;;;;;;;3.34;100.00;100014.59;5020634;28;20223;-71
2024/03/10 00:44:21;;;;;;;45.10;24.13;;;;;;;3.37;100.00;100010.63;5020404;28;20220;-71
2024/03/10 00:46:48;;;;;;;45.80;23.00;;;;;;;3.42;100.00;100010.53;5019606;28;20195;-71
2024/03/10 00:49:15;;;;;;;47.33;23.83;;;;;;;3.42;100.00;100002.72;5020257;28;20204;-71
2024/03/10 00:51:42;;;;;;;45.03;23.17;;;;;;;3.43;100.00;99999.78;5020536;28;20269;-71
2024/03/10 00:54:11;;;;;;;45.80;24.07;;;;;;;3.47;100.00;100003.38;5019028;28;20574;-71
2024/03/10 00:56:38;;;;;;;43.73;22.90;;;;;;;3.48;100.00;99998.94;5017652;28;20220;-71
2024/03/10 00:59:04;;;;;;;42.93;23.37;;;;;;;3.49;100.00;100009.06;5019681;28;20562;-71
2024/03/10 01:01:30;;;;;;;45.10;23.70;;;;;;;3.48;100.00;100004.16;5018579;28;20203;-71
2024/03/10 01:03:57;;;;;;;46.73;23.27;;;;;;;3.48;100.00;100007.50;5020356;28;20251;-71
2024/03/10 01:06:23;;;;;;;45.90;23.27;;;;;;;3.50;100.00;99991.56;5017431;28;20203;-71
2024/03/10 01:08:50;;;;;;;48.03;24.20;;;;;;;3.49;100.00;99995.25;5021085;28;21145;-71
2024/03/10 01:11:17;;;;;;;43.80;22.57;;;;;;;3.48;100.00;99991.84;5018154;28;20322;-71
2024/03/10 01:13:46;;;;;;;45.33;22.27;;;;;;;3.49;100.00;99977.75;5019729;28;20223;-71
2024/03/10 01:16:12;;;;;;;46.10;22.93;;;;;;;3.49;100.00;99979.59;5020690;28;20211;-71
2024/03/10 01:18:38;;;;;;;45.97;23.70;;;;;;;3.50;100.00;99983.72;5019785;28;20227;-71
2024/03/10 01:21:05;;;;;;;44.90;23.10;;;;;;;3.49;100.00;99974.38;5019915;28;20207;-71
2024/03/10 01:23:32;;;;;;;44.63;22.93;;;;;;;3.48;100.00;99968.34;5018775;28;20243;-71
2024/03/10 01:25:58;;;;;;;45.57;23.50;;;;;;;3.48;100.00;99970.97;5018487;28;20204;-71
2024/03/10 01:28:27;;;;;;;47.67;23.50;;;;;;;3.48;100.00;99960.53;5030209;28;20204;-71
2024/03/10 01:30:53;;;;;;;41.97;23.53;;;;;;;3.46;100.00;99960.06;5019665;28;20233;-71
2024/03/10 01:33:20;;;;;;;48.47;23.80;;;;;;;3.45;100.00;99948.09;5018456;28;20567;-71
2024/03/10 01:35:50;;;;;;;44.70;23.77;;;;;;;3.42;100.00;99951.28;5019415;28;20722;-71
2024/03/10 01:38:18;;;;;;;46.90;23.63;;;;;;;3.41;100.00;99947.13;5017740;28;20298;-71
2024/03/10 01:40:45;;;;;;;47.23;23.43;;;;;;;3.39;100.00;99945.88;5018888;28;20227;-71
2024/03/10 01:43:11;;;;;;;48.87;24.23;;;;;;;3.36;100.00;99954.28;5018628;28;20214;-71
2024/03/10 01:45:39;;;;;;;48.30;24.80;;;;;;;3.35;100.00;99955.34;5018062;28;20284;-71
2024/03/10 01:48:06;;;;;;;48.03;24.20;;;;;;;3.32;100.00;99951.47;5020225;28;20243;-71
2024/03/10 01:50:32;;;;;;;41.77;22.43;;;;;;;3.30;100.00;99950.22;5019745;28;20697;-71
2024/03/10 01:52:58;;;;;;;42.57;24.23;;;;;;;3.26;100.00;99957.88;5019877;28;20435;-71
2024/03/10 01:55:25;;;;;;;46.17;23.93;;;;;;;3.22;100.00;99950.94;5016339;28;20442;-71
2024/03/10 01:57:53;;;;;;;44.80;24.00;;;;;;;3.17;100.00;99949.19;5019946;28;20607;-71
2024/03/10 02:00:21;;;;;;;48.87;24.47;;;;;;;3.14;100.00;99946.38;5019426;28;20287;-71
2024/03/10 02:02:50;;;;;;;41.67;23.37;;;;;;;3.09;100.00;99942.06;5020259;28;20262;-71
2024/03/10 02:05:17;;;;;;;45.97;25.13;;;;;;;3.06;100.00;99954.91;5020718;28;20228;-71
2024/03/10 02:07:43;;;;;;;40.53;22.87;;;;;;;3.00;100.00;99946.41;5019861;28;20204;-71
2024/03/10 02:10:10;;;;;;;47.10;24.73;;;;;;;2.96;100.00;99947.28;5020391;28;20663;-71
2024/03/10 02:12:37;;;;;;;46.70;23.37;;;;;;;2.93;100.00;99948.63;5020942;28;20235;-71
2024/03/10 02:15:06;;;;;;;46.90;24.07;;;;;;;2.89;100.00;99947.66;5020820;28;20310;-71
2024/03/10 02:17:36;;;;;;;44.23;23.77;;;;;;;2.88;100.00;99946.13;5018857;28;20794;-71
2024/03/10 02:20:14;;;;;;;46.83;22.87;;;;;;;2.85;100.00;99944.06;5019425;28;20207;-71
2024/03/10 02:22:43;;;;;;;50.80;23.53;;;;;;;2.81;100.00;99945.72;5020512;28;20219;-71
2024/03/10 02:25:12;;;;;;;46.83;24.37;;;;;;;2.79;100.00;99937.41;5025370;28;20960;-71
2024/03/10 02:27:44;;;;;;;48.17;23.27;;;;;;;2.77;100.00;99936.94;5024948;28;20279;-71
2024/03/10 02:30:22;;;;;;;46.73;23.53;;;;;;;2.73;100.00;99932.56;5024137;28;20532;-71
2024/03/10 02:49:15;;;;;;;49.93;25.27;;;;;;;2.60;100.00;99915.88;5024563;28;20208;-71
2024/03/10 02:51:42;;;;;;;55.97;25.90;;;;;;;2.60;100.00;99918.47;5023612;28;20208;-71
2024/03/10 02:54:08;;;;;;;49.07;25.30;;;;;;;2.60;100.00;99910.66;5023102;28;20235;-71
2024/03/10 02:56:34;;;;;;;52.10;25.90;;;;;;;2.59;100.00;99903.91;5024690;28;20220;-71
2024/03/10 02:59:02;;;;;;;53.90;26.93;;;;;;;2.58;100.00;99906.78;5024130;28;20207;-71
2024/03/10 03:01:28;;;;;;;57.63;27.63;;;;;;;2.58;100.00;99918.00;5022781;28;20208;-71
2024/03/10 03:03:55;;;;;;;53.07;26.20;;;;;;;2.57;100.00;99929.50;5023740;28;20226;-71
2024/03/10 03:06:22;;;;;;;51.00;26.30;;;;;;;2.57;100.00;99921.69;5024574;28;20690;-71
2024/03/10 03:08:48;;;;;;;56.33;25.70;;;;;;;2.59;100.00;99924.75;5022748;28;20204;-71
2024/03/10 03:11:15;;;;;;;51.13;25.77;;;;;;;2.59;100.00;99914.34;5024350;28;20214;-71
2024/03/10 03:13:42;;;;;;;50.00;24.93;;;;;;;2.58;100.00;99904.19;5023033;28;20255;-71
2024/03/10 03:16:10;;;;;;;50.30;24.47;;;;;;;2.58;100.00;99912.78;5021124;28;20215;-71
2024/03/10 03:18:36;;;;;;;49.50;24.63;;;;;;;2.58;100.00;99907.59;5023997;28;20452;-71
2024/03/10 03:21:03;;;;;;;42.13;23.87;;;;;;;2.56;100.00;99904.50;5024050;28;20742;-71
2024/03/10 03:23:30;;;;;;;48.80;23.97;;;;;;;2.55;100.00;99908.16;5022538;28;20226;-71
2024/03/10 03:25:56;;;;;;;49.07;24.60;;;;;;;2.53;100.00;99901.69;5024507;28;20192;-71
2024/03/10 03:28:22;;;;;;;48.87;22.93;;;;;;;2.51;100.00;99909.81;5023705;28;20207;-71
2024/03/10 03:30:49;;;;;;;50.40;25.33;;;;;;;2.49;100.00;99911.16;5024200;28;20207;-71
2024/03/10 03:33:17;;;;;;;46.43;23.43;;;;;;;2.47;100.00;99910.66;5022479;28;20200;-71
2024/03/10 03:35:43;;;;;;;47.43;24.93;;;;;;;2.44;100.00;99900.81;5023979;28;20806;-71
2024/03/10 03:41:57;;;;;;;49.87;23.57;;;;;;;2.38;100.00;99896.75;5024424;28;20199;-71
2024/03/10 03:44:23;;;;;;;48.07;23.90;;;;;;;2.37;100.00;99895.19;5022927;28;20238;-71
2024/03/10 03:46:52;;;;;;;48.57;24.40;;;;;;;2.34;100.00;99893.94;5022298;28;20208;-71
2024/03/10 03:49:19;;;;;;;52.00;24.17;;;;;;;2.33;100.00;99897.59;5023963;28;20215;-71
2024/03/10 03:51:46;;;;;;;48.30;23.57;;;;;;;2.33;100.00;99902.06;5024168;28;20222;-71
2024/03/10 03:54:12;;;;;;;45.63;24.70;;;;;;;2.31;100.00;99902.34;5023140;28;20231;-71
2024/03/10 03:56:40;;;;;;;55.13;26.90;;;;;;;2.31;100.00;99904.94;5022956;28;20226;-71
2024/03/10 03:59:06;;;;;;;49.30;25.70;;;;;;;2.32;100.00;99905.72;5025560;28;20675;-72
2024/03/10 04:01:34;;;;;;;46.07;23.60;;;;;;;2.31;100.00;99910.16;5025397;28;20639;-71
2024/03/10 04:04:01;;;;;;;43.83;24.00;;;;;;;2.30;100.00;99902.63;5024465;28;20223;-71
2024/03/10 04:06:29;;;;;;;51.57;24.93;;;;;;;2.27;100.00;99903.97;5024270;28;20211;-71
2024/03/10 04:08:55;;;;;;;49.63;24.27;;;;;;;2.27;100.00;99911.78;5024779;28;20567;-71
2024/03/10 04:11:22;;;;;;;54.80;25.33;;;;;;;2.25;100.00;99903.50;5026726;28;20570;-72
2024/03/10 04:13:48;;;;;;;50.20;24.47;;;;;;;2.23;100.00;99899.63;5026956;28;20609;-72
2024/03/10 04:16:14;;;;;;;45.20;22.73;;;;;;;2.22;100.00;99898.06;5025863;28;21516;-71
2024/03/10 04:18:41;;;;;;;49.67;24.57;;;;;;;2.19;100.00;99896.81;5025712;28;20250;-72
2024/03/10 04:21:07;;;;;;;47.40;23.07;;;;;;;2.18;100.00;99891.91;5027511;28;20200;-71
2024/03/10 04:23:38;;;;;;;49.00;23.77;;;;;;;2.15;100.00;99889.88;5025282;28;20216;-71
2024/03/10 04:26:06;;;;;;;48.53;23.00;;;;;;;2.11;100.00;99887.06;5025220;28;20291;-72
2024/03/10 04:28:32;;;;;;;43.07;21.97;;;;;;;2.11;100.00;99891.47;5025272;28;20821;-72
2024/03/10 04:31:01;;;;;;;46.00;22.87;;;;;;;2.08;100.00;99885.00;5025639;28;20222;-71
2024/03/10 04:33:28;;;;;;;46.93;22.63;;;;;;;2.06;100.00;99888.97;5024889;28;20204;-72
2024/03/10 04:35:54;;;;;;;43.07;21.23;;;;;;;2.02;100.00;99891.38;5025823;28;21113;-72
2024/03/10 04:38:20;;;;;;;45.77;22.17;;;;;;;2.01;100.00;99879.41;5025955;28;20225;-72
2024/03/10 04:40:48;;;;;;;41.77;21.07;;;;;;;1.99;100.00;99872.94;5024483;28;20210;-72
2024/03/10 04:43:14;;;;;;;41.67;22.13;;;;;;;1.97;100.00;99882.88;5024634;28;20207;-72
2024/03/10 04:45:44;;;;;;;49.17;22.53;;;;;;;1.94;100.00;99881.63;5022666;28;20218;-72
2024/03/10 04:48:11;;;;;;;44.67;21.67;;;;;;;1.90;100.00;99883.25;5024817;28;20223;-71
2024/03/10 04:50:41;;;;;;;46.77;22.33;;;;;;;1.87;100.00;99881.19;5024865;28;20286;-72
2024/03/10 04:53:07;;;;;;;45.67;21.83;;;;;;;1.86;100.00;99873.66;5023525;28;20211;-71
2024/03/10 04:55:33;;;;;;;51.53;23.10;;;;;;;1.85;100.00;99872.13;5023062;28;20239;-71
2024/03/10 04:58:01;;;;;;;47.30;22.67;;;;;;;1.82;100.00;99876.06;5022523;28;20222;-71
2024/03/10 05:00:28;;;;;;;49.17;22.27;;;;;;;1.79;100.00;99868.06;5023305;28;20751;-71
2024/03/10 05:02:54;;;;;;;48.70;22.50;;;;;;;1.76;100.00;99866.81;5020340;28;20582;-71
2024/03/10 05:05:21;;;;;;;49.73;23.10;;;;;;;1.73;100.00;99866.59;5024476;28;20235;-71
2024/03/10 05:07:51;;;;;;;49.87;23.23;;;;;;;1.74;100.00;99868.94;5022954;28;20278;-71
2024/03/10 05:10:17;;;;;;;47.50;22.77;;;;;;;1.73;100.00;99867.41;5021757;28;20227;-71
2024/03/10 05:12:44;;;;;;;44.00;23.00;;;;;;;1.72;100.00;99865.81;5023975;28;20702;-71
2024/03/10 05:15:15;;;;;;;51.80;25.10;;;;;;;1.71;100.00;99869.50;5022440;28;20224;-71
2024/03/10 05:17:41;;;;;;;48.20;22.50;;;;;;;1.72;100.00;99860.63;5023681;28;20208;-71
2024/03/10 05:20:09;;;;;;;47.60;23.43;;;;;;;1.71;100.00;99864.28;5022489;28;20211;-71
2024/03/10 05:22:36;;;;;;;52.40;24.97;;;;;;;1.73;100.00;99866.59;5022878;28;20208;-71
2024/03/10 05:25:02;;;;;;;48.47;23.87;;;;;;;1.73;100.00;99858.81;5024240;28;20231;-71
2024/03/10 05:27:29;;;;;;;54.57;24.37;;;;;;;1.75;100.00;99860.06;5021321;28;20196;-71
2024/03/10 05:29:55;;;;;;;48.70;23.33;;;;;;;1.76;100.00;99860.84;5022193;28;20203;-71
2024/03/10 05:32:23;;;;;;;49.07;23.27;;;;;;;1.75;100.00;99857.47;5022925;28;20286;-71
2024/03/10 05:34:49;;;;;;;56.57;24.43;;;;;;;1.76;100.00;99853.03;5020883;28;20915;-71
2024/03/10 05:37:16;;;;;;;46.17;22.90;;;;;;;1.77;100.00;99859.78;5022939;28;20220;-71
2024/03/10 05:39:42;;;;;;;60.33;24.73;;;;;;;1.77;100.00;99857.19;5024527;28;20215;-71
2024/03/10 05:42:10;;;;;;;45.33;22.10;;;;;;;1.77;100.00;99851.97;5021432;28;20211;-71
2024/03/10 05:44:37;;;;;;;48.63;23.57;;;;;;;1.77;100.00;99852.72;5022267;28;20704;-71
2024/03/10 05:47:04;;;;;;;50.30;24.87;;;;;;;1.78;100.00;99845.72;5023354;28;20230;-72
2024/03/10 05:49:31;;;;;;;47.17;22.80;;;;;;;1.77;100.00;99852.72;5024581;28;20214;-72
2024/03/10 05:51:58;;;;;;;45.63;22.07;;;;;;;1.77;100.00;99850.13;5022833;28;20207;-71
2024/03/10 05:54:24;;;;;;;47.27;22.50;;;;;;;1.78;100.00;99837.91;5021945;28;20376;-71
2024/03/10 05:56:51;;;;;;;47.77;22.57;;;;;;;1.78;100.00;99843.88;5023728;28;20253;-71
2024/03/10 05:59:17;;;;;;;44.57;23.23;;;;;;;1.80;100.00;99851.38;5025650;28;20210;-71
2024/03/10 06:01:46;;;;;;;53.20;24.27;;;;;;;1.81;100.00;99848.50;5026993;28;20207;-72
2024/03/10 06:04:16;;;;;;;47.67;22.80;;;;;;;1.82;100.00;99849.28;5025223;28;20255;-72
2024/03/10 06:06:44;;;;;;;50.70;23.80;;;;;;;1.84;100.00;99854.97;5025623;28;21038;-71
2024/03/10 06:09:10;;;;;;;49.90;22.57;;;;;;;1.84;100.00;99857.56;5025493;28;20223;-71
2024/03/10 06:11:36;;;;;;;51.40;23.50;;;;;;;1.85;100.00;99861.72;5025053;28;20212;-72
2024/03/10 06:14:03;;;;;;;48.50;22.90;;;;;;;1.87;100.00;99859.63;5025500;28;20228;-71
2024/03/10 06:16:30;;;;;;;51.80;23.33;;;;;;;1.88;100.00;99858.56;5024996;28;20204;-72
2024/03/10 06:27:09;;;;;;;46.10;22.27;;;;;;;1.98;100.00;99863.59;5024600;28;20208;-72
2024/03/10 06:29:36;;;;;;;48.57;22.13;;;;;;;2.01;100.00;99857.81;5025935;28;20203;-71
2024/03/10 06:32:03;;;;;;;50.50;22.37;;;;;;;2.03;100.00;99863.50;5025909;28;20200;-72
2024/03/10 06:34:30;;;;;;;50.17;23.93;;;;;;;2.07;100.00;99861.88;5025000;28;20311;-72
2024/03/10 06:36:56;;;;;;;53.77;24.10;;;;;;;2.10;100.00;99856.88;5024391;28;20204;-72
2024/03/10 06:39:24;;;;;;;59.07;30.20;;;;;;;2.16;100.00;99853.13;5024822;28;20201;-72
2024/03/10 06:41:52;;;;;;;68.97;30.90;;;;;;;2.20;100.00;99848.88;5023627;28;20244;-72
2024/03/10 06:44:19;;;;;;;54.67;25.27;;;;;;;2.24;100.00;99847.22;5024468;28;20334;-71
2024/03/10 06:46:46;;;;;;;52.87;24.73;;;;;;;2.30;100.00;99838.28;5025040;28;20208;-71
2024/03/10 06:49:13;;;;;;;56.93;26.37;;;;;;;2.38;100.00;99834.25;5023426;28;20216;-72
2024/03/10 06:51:44;;;;;;;61.23;25.50;;;;;;;2.49;100.00;99838.19;5025441;28;20215;-72
2024/03/10 06:54:11;;;;;;;49.73;23.33;;;;;;;2.55;100.00;99842.25;5023126;28;20256;-72
2024/03/10 06:56:40;;;;;;;58.80;26.10;;;;;;;2.63;100.00;99836.34;5021967;28;20204;-72
2024/03/10 06:59:08;;;;;;;55.80;25.37;;;;;;;2.69;100.00;99851.59;5023139;28;20687;-72
2024/03/10 07:01:35;;;;;;;63.00;27.60;;;;;;;2.78;100.00;99843.84;5024318;28;20218;-72
2024/03/10 07:04:01;;;;;;;56.70;25.40;;;;;;;2.87;100.00;99849.94;5023698;28;20831;-72
2024/03/10 07:06:27;;;;;;;58.43;26.13;;;;;;;2.92;100.00;99853.22;5022483;28;20199;-72
2024/03/10 07:08:54;;;;;;;56.13;25.37;;;;;;;3.01;100.00;99845.47;5020303;28;20202;-72
2024/03/10 07:11:20;;;;;;;58.93;25.70;;;;;;;3.09;100.00;99842.94;5022485;28;20204;-72
2024/03/10 07:13:47;;;;;;;60.33;25.60;;;;;;;3.20;100.00;99844.25;5020216;28;20227;-72
2024/03/10 07:16:15;;;;;;;60.17;26.87;;;;;;;3.25;100.00;99846.75;5020790;28;20208;-72
2024/03/10 07:18:41;;;;;;;59.60;27.20;;;;;;;3.35;100.00;99843.94;5019565;28;20228;-72
2024/03/10 07:21:13;;;;;;;62.10;27.57;;;;;;;3.42;100.00;99849.50;5023955;28;20740;-71
2024/03/10 07:23:43;;;;;;;68.47;28.90;;;;;;;3.50;100.00;99843.59;5018395;28;20224;-72
2024/03/10 07:26:09;;;;;;;61.37;27.03;;;;;;;3.58;100.00;99836.88;5017536;28;20653;-72
2024/03/10 07:28:36;;;;;;;64.60;28.13;;;;;;;3.67;100.00;99825.41;5017246;28;20287;-72
2024/03/10 07:31:04;;;;;;;69.87;31.40;;;;;;;3.74;100.00;99830.97;5018059;28;20675;-72
2024/03/10 07:33:33;;;;;;;64.37;27.50;;;;;;;3.85;100.00;99821.84;5018569;28;20223;-71
2024/03/10 07:36:00;;;;;;;68.97;29.23;;;;;;;3.91;100.00;99820.66;5016459;28;20208;-72
2024/03/10 07:38:27;;;;;;;75.63;31.27;;;;;;;3.97;100.00;99824.69;5016060;28;20216;-72
2024/03/10 07:40:59;;;;;;;79.17;32.67;;;;;;;4.07;100.00;99829.66;5017144;28;20200;-72
2024/03/10 07:43:25;;;;;;;74.97;31.33;;;;;;;4.15;100.00;99828.91;5014365;28;20704;-72
2024/03/10 07:45:52;;;;;;;73.20;33.10;;;;;;;4.25;100.00;99840.94;5013625;28;20279;-72
2024/03/10 07:48:18;;;;;;;70.63;31.07;;;;;;;4.35;100.00;99833.59;5015198;28;20686;-72
2024/03/10 07:50:46;;;;;;;69.57;28.90;;;;;;;4.45;100.00;99845.66;5013618;28;20207;-72
2024/03/10 07:53:13;;;;;;;74.70;31.73;;;;;;;4.51;100.00;99836.59;5012609;28;20570;-72
2024/03/10 07:55:39;;;;;;;82.47;34.80;;;;;;;4.60;100.00;99840.75;5015425;28;20679;-72
2024/03/10 07:58:06;;;;;;;73.13;31.57;;;;;;;4.69;100.00;99835.53;5013799;28;20698;-72
2024/03/10 08:00:32;;;;;;;72.30;30.33;;;;;;;4.77;100.00;99830.34;5018198;28;20218;-72
2024/03/10 08:02:59;;;;;;;72.87;30.77;;;;;;;4.85;100.00;99826.97;5016033;28;20215;-72
2024/03/10 08:05:26;;;;;;;68.03;30.70;;;;;;;4.91;100.00;99823.13;5016689;28;20343;-72
2024/03/10 08:07:53;;;;;;;68.17;29.83;;;;;;;4.97;100.00;99819.28;5016818;28;20198;-72
2024/03/10 08:10:21;;;;;;;71.33;29.20;;;;;;;5.05;100.00;99823.78;5017102;28;20210;-72
2024/03/10 08:12:48;;;;;;;67.20;29.47;;;;;;;5.14;100.00;99826.38;5017234;28;20203;-72
2024/03/10 08:15:16;;;;;;;69.07;28.87;;;;;;;5.22;100.00;99825.59;5015499;28;20224;-72
2024/03/10 08:17:45;;;;;;;68.87;29.97;;;;;;;5.27;100.00;99825.44;5015666;28;20309;-72
2024/03/10 08:20:14;;;;;;;64.23;29.23;;;;;;;5.34;100.00;99829.16;5013660;28;20216;-72
2024/03/10 08:22:41;;;;;;;60.40;28.57;;;;;;;5.43;100.00;99829.94;5013885;28;20639;-72
2024/03/10 08:25:09;;;;;;;64.03;29.00;;;;;;;5.57;100.00;99817.44;5009502;28;20297;-72
2024/03/10 08:27:36;;;;;;;61.77;28.50;;;;;;;5.68;100.00;99823.91;5009114;28;20203;-72
2024/03/10 08:30:03;;;;;;;60.90;29.43;;;;;;;5.77;100.00;99819.41;5011310;28;20204;-72
2024/03/10 08:32:30;;;;;;;58.57;29.20;;;;;;;5.89;100.00;99821.41;5010627;28;20462;-72
2024/03/10 08:34:57;;;;;;;58.10;27.43;;;;;;;6.03;100.00;99821.97;5010802;28;20744;-72
2024/03/10 08:37:23;;;;;;;51.77;27.43;;;;;;;6.14;100.00;99818.72;5011467;28;20276;-72
2024/03/10 08:39:50;;;;;;;51.73;26.40;;;;;;;6.26;100.00;99821.44;5009051;28;20216;-72
2024/03/10 08:42:20;;;;;;;50.33;25.73;;;;;;;6.35;100.00;99818.78;5008353;28;20282;-72
2024/03/10 08:44:50;;;;;;;47.97;25.83;;;;;;;6.50;100.00;99819.03;5007963;28;20227;-72
2024/03/10 08:47:17;;;;;;;45.47;23.20;;;;;;;6.65;100.00;99821.09;5007751;28;20940;-72
2024/03/10 08:49:43;;;;;;;39.00;22.37;;;;;;;6.75;100.00;99825.22;5006503;28;20206;-72
2024/03/10 08:52:12;;;;;;;37.20;21.87;;;;;;;6.89;100.00;99820.50;5005324;28;20211;-72
2024/03/10 08:54:38;;;;;;;36.77;20.00;;;;;;;6.98;100.00;99826.44;5007365;28;20230;-72
2024/03/10 08:57:05;;;;;;;32.87;19.20;;;;;;;7.07;100.00;99832.41;5007447;28;20577;-72
2024/03/10 08:59:33;;;;;;;30.30;18.80;;;;;;;7.16;100.00;99831.28;5005925;28;20702;-72
2024/03/10 09:02:01;;;;;;;30.07;18.23;;;;;;;7.27;100.00;99834.25;5002943;28;20215;-73
2024/03/10 09:04:28;;;;;;;31.13;19.00;;;;;;;7.40;100.00;99828.00;5005798;28;20227;-72
2024/03/10 09:06:54;;;;;;;26.80;18.20;;;;;;;7.46;100.00;99824.06;5004955;28;20209;-72
2024/03/10 09:09:22;;;;;;;28.87;17.87;;;;;;;7.54;100.00;99829.25;5002608;28;20227;-72
2024/03/10 09:11:49;;;;;;;32.00;19.07;;;;;;;7.62;100.00;99814.50;5002017;28;20322;-72
2024/03/10 09:14:15;;;;;;;28.43;17.20;;;;;;;7.71;100.00;99823.81;5003652;28;20236;-72
2024/03/10 09:16:46;;;;;;;30.53;17.47;;;;;;;7.82;100.00;99814.44;5004051;28;20328;-72
2024/03/10 09:19:14;;;;;;;30.03;17.23;;;;;;;7.90;100.00;99810.97;5016384;28;20405;-72
2024/03/10 09:21:40;;;;;;;28.67;16.57;;;;;;;8.07;100.00;99804.75;5005217;28;20214;-72
2024/03/10 09:24:07;;;;;;;29.23;18.10;;;;;;;8.14;100.00;99803.09;5003211;28;20297;-72
2024/03/10 09:26:35;;;;;;;26.77;16.67;;;;;;;8.23;100.00;99800.41;5003685;28;20217;-72
2024/03/10 09:29:01;;;;;;;25.60;15.83;;;;;;;8.33;100.00;99802.59;5003536;28;20218;-72
2024/03/10 09:31:28;;;;;;;25.67;16.13;;;;;;;8.39;100.00;99803.91;5004768;28;20652;-72
2024/03/10 09:33:57;;;;;;;25.23;16.60;;;;;;;8.46;100.00;99802.28;5005835;28;20286;-72
2024/03/10 09:36:24;;;;;;;22.60;14.83;;;;;;;8.57;100.00;99799.94;5005363;28;20210;-72
2024/03/10 09:38:54;;;;;;;24.23;16.00;;;;;;;8.64;100.00;99800.19;5005338;28;20220;-72
2024/03/10 09:41:21;;;;;;;27.13;17.30;;;;;;;8.72;100.00;99807.97;5005841;28;20291;-72
2024/03/10 09:43:51;;;;;;;28.97;17.53;;;;;;;8.83;100.00;99803.75;5005903;28;20728;-72
2024/03/10 09:46:21;;;;;;;24.97;15.73;;;;;;;8.90;100.00;99801.31;5007488;28;20218;-72
2024/03/10 09:48:51;;;;;;;26.27;15.93;;;;;;;9.00;100.00;99800.88;5005766;28;20301;-72
2024/03/10 09:51:19;;;;;;;25.47;15.87;;;;;;;9.13;100.00;99806.88;5004461;28;20551;-73
2024/03/10 09:53:48;;;;;;;23.73;15.80;;;;;;;9.22;100.00;99805.63;5004941;28;20262;-72
2024/03/10 09:56:15;;;;;;;22.17;15.07;;;;;;;9.34;100.00;99796.91;5002088;28;20236;-72
2024/03/10 09:58:45;;;;;;;26.60;16.23;;;;;;;9.42;100.00;99798.66;5004491;28;20226;-72
2024/03/10 10:01:16;;;;;;;25.87;16.07;;;;;;;9.52;100.00;99798.19;5000037;28;20499;-72
2024/03/10 10:03:44;;;;;;;23.60;14.67;;;;;;;9.62;100.00;99803.72;4999973;28;20579;-72
2024/03/10 10:06:15;;;;;;;22.13;14.73;;;;;;;9.71;100.00;99798.28;4999403;28;20212;-72
2024/03/10 10:08:45;;;;;;;199.77;117.77;;;;;;;9.85;100.00;99796.78;5000282;28;20242;-73
2024/03/10 10:11:12;;;;;;;24.70;17.27;;;;;;;10.08;100.00;99795.13;4998323;28;20195;-72
2024/03/10 10:13:39;;;;;;;23.00;15.83;;;;;;;10.37;100.00;99791.28;4999227;28;20223;-72
2024/03/10 10:16:08;;;;;;;24.50;15.27;;;;;;;10.78;100.00;99785.41;4993272;28;20480;-73
2024/03/10 10:18:36;;;;;;;24.97;15.50;;;;;;;11.17;100.00;99779.03;4998909;28;20314;-73
2024/03/10 10:21:07;;;;;;;23.13;14.60;;;;;;;11.47;100.00;99782.63;4999025;28;20218;-73
2024/03/10 10:23:35;;;;;;;20.80;13.63;;;;;;;11.78;100.00;99774.53;4995148;28;20220;-72
2024/03/10 10:26:09;;;;;;;25.30;17.57;;;;;;;12.09;100.00;99779.56;4995869;28;20302;-73
2024/03/10 10:28:37;;;;;;;24.63;14.83;;;;;;;12.33;100.00;99781.84;4993727;28;21110;-73
2024/03/10 10:31:14;;;;;;;22.57;15.10;;;;;;;12.75;100.00;99782.44;4994901;28;20218;-72
2024/03/10 10:33:45;;;;;;;20.97;14.73;;;;;;;12.92;100.00;99758.84;4996698;28;20311;-73
2024/03/10 10:36:12;;;;;;;319.50;230.10;;;;;;;13.26;100.00;99764.94;4996923;28;20208;-73
2024/03/10 10:38:40;;;;;;;29.13;17.80;;;;;;;13.46;100.00;99767.03;4997550;28;20208;-73
2024/03/10 10:41:08;;;;;;;19.50;13.33;;;;;;;13.68;100.00;99760.06;4998946;28;21069;-73
2024/03/10 10:43:37;;;;;;;21.30;13.27;;;;;;;13.78;100.00;99756.75;4995793;28;21107;-73
2024/03/10 10:46:04;;;;;;;18.80;12.80;;;;;;;13.88;100.00;99767.44;4994810;28;20222;-73
2024/03/10 10:48:33;;;;;;;18.23;13.50;;;;;;;14.03;100.00;99757.72;4999224;28;20211;-73
2024/03/10 10:51:02;;;;;;;24.63;13.90;;;;;;;14.36;100.00;99753.06;4997812;28;20208;-73
2024/03/10 10:53:29;;;;;;;18.13;11.80;;;;;;;14.55;100.00;99752.78;4997266;28;20204;-73
2024/03/10 10:55:58;;;;;;;198.67;107.40;;;;;;;14.55;100.00;99755.44;4996780;28;20200;-73
2024/03/10 10:58:29;;;;;;;36.83;21.03;;;;;;;14.49;100.00;99756.94;4995305;28;20807;-73
2024/03/10 11:00:59;;;;;;;732.60;337.77;;;;;;;14.47;100.00;99755.78;4995172;28;20418;-73
2024/03/10 11:03:26;;;;;;;43.43;27.50;;;;;;;14.34;100.00;99736.72;4994235;28;20219;-73
2024/03/10 11:06:30;;;;;;;100.03;89.17;;;;;;;14.37;94.03;99745.84;4997386;28;20204;-73
2024/03/10 11:08:57;;;;;;;22.47;13.67;;;;;;;14.36;100.00;99733.69;4993708;28;20250;-72
2024/03/10 11:11:44;;;;;;;18.97;13.57;;;;;;;14.38;100.00;99731.44;4992651;28;20689;-72
2024/03/10 11:14:13;;;;;;;177.10;97.73;;;;;;;14.23;100.00;99732.50;4994626;28;20321;-72
2024/03/10 11:16:41;;;;;;;91.57;49.17;;;;;;;14.14;94.24;99732.78;4993719;28;21845;-73
2024/03/10 11:19:21;;;;;;;61.93;29.97;;;;;;;14.13;83.95;99722.53;4993951;28;20201;-72
2024/03/10 11:21:49;;;;;;;33.70;18.23;;;;;;;14.06;84.28;99728.53;4993699;28;20222;-72
2024/03/10 11:24:17;;;;;;;66.53;28.47;;;;;;;14.00;87.98;99716.75;4992309;28;20251;-73
2024/03/10 11:26:44;;;;;;;244.73;81.20;;;;;;;13.98;99.57;99718.25;4996728;28;20652;-73
2024/03/10 11:29:26;;;;;;;51.37;22.60;;;;;;;13.94;93.91;99715.56;4993711;28;21343;-72
2024/03/10 11:31:56;;;;;;;22.17;13.83;;;;;;;13.90;99.81;99704.16;4996409;28;20211;-72
2024/03/10 11:34:24;;;;;;;57.73;23.40;;;;;;;13.90;95.94;99700.72;4991693;28;20351;-72
2024/03/10 11:36:51;;;;;;;182.17;58.93;;;;;;;13.89;97.89;99701.88;4994769;28;20240;-72
2024/03/10 11:39:20;;;;;;;13.57;9.13;;;;;;;13.88;100.00;99700.34;4988356;28;20208;-72
2024/03/10 11:41:49;;;;;;;60.67;22.77;;;;;;;13.75;94.22;99693.78;4997190;28;20210;-72
2024/03/10 11:44:16;;;;;;;131.30;42.17;;;;;;;13.66;93.36;99690.69;4996278;28;20227;-72